Tongue Point, Oregon
Current Conditions -  °F | °C
As of 3:55 PM on Tuesday 25 Nov 2014 (Local Time) from KAST Reporting Station
Overcast Overcast  
Wind Chill: 58°   Ceiling: 5500
Heat Index: 58°   Visibility: 10mi
Dew Point: 53°   Wind: 15mph
Humidity: 84%   Direction: 210°SSW
Pressure: 30.26"   Gusts: 21mph
Location:  46.0947°N, 123.685°W
Report Text: KAST 252355Z AUTO 21013G18KT 10SM OVC055 14/12 A3026 RMK AO2 RAE2256 SLP246 P0000 60000 T01440117 10144 20139 58004
Loading
Personal Weather Stations






























Interactive Weather Map New forecast layout! Learn more

10-Day Weather Forecast

Advertisements
Track Severe Weather on mobile